sensor_id;sensor_type;location;lat;lon;timestamp;pressure;altitude;pressure_sealevel;temperature;humidity
64711;BME280;51139;45.626;6.850;2023-09-12T00:02:11;82333.88;;;17.46;57.84
64711;BME280;51139;45.626;6.850;2023-09-12T00:04:37;82333.53;;;17.40;58.17
64711;BME280;51139;45.626;6.850;2023-09-12T00:07:02;82327.25;;;17.35;57.83
64711;BME280;51139;45.626;6.850;2023-09-12T00:09:28;82324.34;;;17.31;57.98
64711;BME280;51139;45.626;6.850;2023-09-12T00:11:53;82320.78;;;17.15;58.70
64711;BME280;51139;45.626;6.850;2023-09-12T00:14:20;82325.53;;;17.28;58.37
64711;BME280;51139;45.626;6.850;2023-09-12T00:16:45;82326.91;;;17.29;57.82
64711;BME280;51139;45.626;6.850;2023-09-12T00:19:11;82325.19;;;17.34;57.21
64711;BME280;51139;45.626;6.850;2023-09-12T00:21:37;82326.13;;;17.27;56.63
64711;BME280;51139;45.626;6.850;2023-09-12T00:24:02;82323.91;;;17.11;56.99
64711;BME280;51139;45.626;6.850;2023-09-12T00:26:28;82315.31;;;17.13;56.96
64711;BME280;51139;45.626;6.850;2023-09-12T00:28:56;82320.88;;;16.93;56.88
64711;BME280;51139;45.626;6.850;2023-09-12T00:31:21;82316.56;;;16.76;57.88
64711;BME280;51139;45.626;6.850;2023-09-12T00:33:46;82305.06;;;17.09;55.58
64711;BME280;51139;45.626;6.850;2023-09-12T00:36:12;82305.78;;;17.10;54.57
64711;BME280;51139;45.626;6.850;2023-09-12T00:38:37;82304.22;;;17.42;52.96
64711;BME280;51139;45.626;6.850;2023-09-12T00:41:03;82313.69;;;17.57;53.03
64711;BME280;51139;45.626;6.850;2023-09-12T00:43:28;82313.78;;;17.71;52.29
64711;BME280;51139;45.626;6.850;2023-09-12T00:45:53;82306.91;;;17.80;52.40
64711;BME280;51139;45.626;6.850;2023-09-12T00:48:21;82311.19;;;17.85;52.51
64711;BME280;51139;45.626;6.850;2023-09-12T00:50:48;82308.53;;;18.37;49.88
64711;BME280;51139;45.626;6.850;2023-09-12T00:53:15;82309.91;;;19.04;48.00
64711;BME280;51139;45.626;6.850;2023-09-12T00:55:46;82323.81;;;19.00;47.30
64711;BME280;51139;45.626;6.850;2023-09-12T00:58:14;82322.53;;;19.29;48.04
64711;BME280;51139;45.626;6.850;2023-09-12T01:00:41;82327.84;;;18.87;47.03
64711;BME280;51139;45.626;6.850;2023-09-12T01:03:07;82321.13;;;18.60;49.42
64711;BME280;51139;45.626;6.850;2023-09-12T01:05:33;82314.88;;;18.70;48.60
64711;BME280;51139;45.626;6.850;2023-09-12T01:07:59;82319.63;;;18.57;48.45
64711;BME280;51139;45.626;6.850;2023-09-12T01:10:26;82322.31;;;18.57;48.33
64711;BME280;51139;45.626;6.850;2023-09-12T01:12:52;82316.03;;;18.52;49.02
64711;BME280;51139;45.626;6.850;2023-09-12T01:15:17;82313.97;;;17.87;52.38
64711;BME280;51139;45.626;6.850;2023-09-12T01:17:44;82312.69;;;17.50;53.14
64711;BME280;51139;45.626;6.850;2023-09-12T01:20:21;82311.72;;;17.58;52.56
64711;BME280;51139;45.626;6.850;2023-09-12T01:28:30;82301.94;;;17.62;52.28
64711;BME280;51139;45.626;6.850;2023-09-12T01:31:00;82301.34;;;17.64;51.74
64711;BME280;51139;45.626;6.850;2023-09-12T01:33:26;82301.22;;;18.00;50.04
64711;BME280;51139;45.626;6.850;2023-09-12T01:35:52;82290.50;;;18.12;49.85
64711;BME280;51139;45.626;6.850;2023-09-12T01:38:18;82290.66;;;18.02;49.91
64711;BME280;51139;45.626;6.850;2023-09-12T01:40:47;82286.75;;;17.79;50.12
64711;BME280;51139;45.626;6.850;2023-09-12T01:43:16;82288.72;;;17.78;48.96
64711;BME280;51139;45.626;6.850;2023-09-12T01:45:43;82291.38;;;17.90;48.76
64711;BME280;51139;45.626;6.850;2023-09-12T01:48:11;82291.59;;;17.94;49.36
64711;BME280;51139;45.626;6.850;2023-09-12T01:50:36;82294.22;;;18.06;49.11
64711;BME280;51139;45.626;6.850;2023-09-12T01:53:03;82299.84;;;17.61;50.23
64711;BME280;51139;45.626;6.850;2023-09-12T01:55:29;82299.94;;;16.89;52.28
64711;BME280;51139;45.626;6.850;2023-09-12T01:57:55;82302.72;;;17.27;51.96
64711;BME280;51139;45.626;6.850;2023-09-12T02:00:22;82299.13;;;17.60;51.22
64711;BME280;51139;45.626;6.850;2023-09-12T02:02:48;82312.88;;;18.04;49.46
64711;BME280;51139;45.626;6.850;2023-09-12T02:05:16;82314.84;;;18.16;49.68
64711;BME280;51139;45.626;6.850;2023-09-12T02:07:46;82313.78;;;17.71;51.36
64711;BME280;51139;45.626;6.850;2023-09-12T02:10:11;82307.53;;;18.04;50.51
64711;BME280;51139;45.626;6.850;2023-09-12T02:12:37;82305.72;;;17.83;50.74
64711;BME280;51139;45.626;6.850;2023-09-12T02:15:03;82305.00;;;17.45;51.80
64711;BME280;51139;45.626;6.850;2023-09-12T02:17:29;82304.25;;;17.68;50.45
64711;BME280;51139;45.626;6.850;2023-09-12T02:19:54;82307.78;;;17.59;52.72
64711;BME280;51139;45.626;6.850;2023-09-12T02:22:20;82311.09;;;17.33;55.46
64711;BME280;51139;45.626;6.850;2023-09-12T02:24:45;82297.38;;;17.27;55.74
64711;BME280;51139;45.626;6.850;2023-09-12T02:27:11;82285.41;;;16.45;57.02
64711;BME280;51139;45.626;6.850;2023-09-12T02:29:38;82297.47;;;17.17;53.33
64711;BME280;51139;45.626;6.850;2023-09-12T02:32:05;82288.25;;;17.44;51.88
64711;BME280;51139;45.626;6.850;2023-09-12T02:34:30;82294.34;;;17.33;52.97
64711;BME280;51139;45.626;6.850;2023-09-12T02:36:56;82291.44;;;17.17;53.28
64711;BME280;51139;45.626;6.850;2023-09-12T02:39:21;82287.63;;;17.08;53.14
64711;BME280;51139;45.626;6.850;2023-09-12T02:41:46;82278.78;;;17.05;53.27
64711;BME280;51139;45.626;6.850;2023-09-12T02:44:12;82272.72;;;16.93;53.05
64711;BME280;51139;45.626;6.850;2023-09-12T02:46:37;82270.53;;;17.01;52.73
64711;BME280;51139;45.626;6.850;2023-09-12T02:49:03;82264.13;;;17.06;52.67
64711;BME280;51139;45.626;6.850;2023-09-12T02:51:28;82266.19;;;17.20;52.93
64711;BME280;51139;45.626;6.850;2023-09-12T02:53:54;82259.34;;;17.05;53.68
64711;BME280;51139;45.626;6.850;2023-09-12T02:56:19;82254.09;;;17.07;54.18
64711;BME280;51139;45.626;6.850;2023-09-12T02:58:48;82262.81;;;17.19;53.52
64711;BME280;51139;45.626;6.850;2023-09-12T03:01:19;82268.03;;;17.29;52.85
64711;BME280;51139;45.626;6.850;2023-09-12T03:03:49;82266.88;;;17.20;52.11
64711;BME280;51139;45.626;6.850;2023-09-12T03:06:15;82268.75;;;17.30;51.85
64711;BME280;51139;45.626;6.850;2023-09-12T03:08:41;82267.81;;;17.25;52.69
64711;BME280;51139;45.626;6.850;2023-09-12T03:11:07;82267.00;;;17.23;52.63
64711;BME280;51139;45.626;6.850;2023-09-12T03:13:40;82264.28;;;17.46;50.38
64711;BME280;51139;45.626;6.850;2023-09-12T03:16:12;82260.34;;;17.73;50.19
64711;BME280;51139;45.626;6.850;2023-09-12T03:18:38;82260.66;;;17.79;50.36
64711;BME280;51139;45.626;6.850;2023-09-12T03:21:04;82268.50;;;18.01;49.95
64711;BME280;51139;45.626;6.850;2023-09-12T03:23:29;82272.22;;;17.96;49.63
64711;BME280;51139;45.626;6.850;2023-09-12T03:25:55;82272.50;;;17.88;50.58
64711;BME280;51139;45.626;6.850;2023-09-12T03:28:20;82266.22;;;17.84;49.66
64711;BME280;51139;45.626;6.850;2023-09-12T03:30:46;82274.88;;;17.82;49.27
64711;BME280;51139;45.626;6.850;2023-09-12T03:33:11;82279.28;;;18.15;48.37
64711;BME280;51139;45.626;6.850;2023-09-12T03:35:37;82289.00;;;18.48;47.83
64711;BME280;51139;45.626;6.850;2023-09-12T03:38:02;82279.78;;;19.05;46.59
64711;BME280;51139;45.626;6.850;2023-09-12T03:40:29;82281.72;;;18.37;47.52
64711;BME280;51139;45.626;6.850;2023-09-12T03:42:55;82281.69;;;18.63;47.08
64711;BME280;51139;45.626;6.850;2023-09-12T03:45:21;82281.88;;;18.53;47.23
64711;BME280;51139;45.626;6.850;2023-09-12T03:47:46;82284.13;;;18.99;45.84
64711;BME280;51139;45.626;6.850;2023-09-12T03:50:12;82286.41;;;18.50;47.02
64711;BME280;51139;45.626;6.850;2023-09-12T03:52:38;82284.50;;;17.87;49.25
64711;BME280;51139;45.626;6.850;2023-09-12T03:55:04;82281.56;;;17.95;49.52
64711;BME280;51139;45.626;6.850;2023-09-12T03:57:29;82279.31;;;18.69;47.53
64711;BME280;51139;45.626;6.850;2023-09-12T03:59:55;82286.06;;;18.56;45.33
64711;BME280;51139;45.626;6.850;2023-09-12T04:02:20;82291.16;;;18.38;46.22
64711;BME280;51139;45.626;6.850;2023-09-12T04:04:46;82287.25;;;18.01;46.46
64711;BME280;51139;45.626;6.850;2023-09-12T04:07:11;82279.84;;;17.88;46.20
64711;BME280;51139;45.626;6.850;2023-09-12T04:09:36;82291.84;;;17.87;46.18
64711;BME280;51139;45.626;6.850;2023-09-12T04:12:02;82294.38;;;17.59;47.50
64711;BME280;51139;45.626;6.850;2023-09-12T04:14:28;82294.25;;;17.69;49.03
64711;BME280;51139;45.626;6.850;2023-09-12T04:16:53;82298.78;;;17.66;48.58
64711;BME280;51139;45.626;6.850;2023-09-12T04:19:18;82297.06;;;17.59;48.21
64711;BME280;51139;45.626;6.850;2023-09-12T04:21:44;82296.84;;;17.55;49.16
64711;BME280;51139;45.626;6.850;2023-09-12T04:24:09;82293.75;;;17.72;49.08
64711;BME280;51139;45.626;6.850;2023-09-12T04:26:34;82296.66;;;17.76;48.61
64711;BME280;51139;45.626;6.850;2023-09-12T04:29:00;82295.66;;;17.58;49.61
64711;BME280;51139;45.626;6.850;2023-09-12T04:31:25;82285.88;;;17.25;49.64
64711;BME280;51139;45.626;6.850;2023-09-12T04:33:51;82294.69;;;17.15;50.13
64711;BME280;51139;45.626;6.850;2023-09-12T04:36:17;82291.06;;;17.34;50.60
64711;BME280;51139;45.626;6.850;2023-09-12T04:38:43;82299.69;;;17.33;50.60
64711;BME280;51139;45.626;6.850;2023-09-12T04:41:08;82293.19;;;17.12;50.36
64711;BME280;51139;45.626;6.850;2023-09-12T04:43:35;82293.19;;;16.76;52.86
64711;BME280;51139;45.626;6.850;2023-09-12T04:46:00;82299.13;;;16.75;52.66
64711;BME280;51139;45.626;6.850;2023-09-12T04:48:26;82292.72;;;16.56;53.17
64711;BME280;51139;45.626;6.850;2023-09-12T04:50:51;82290.66;;;16.67;53.32
64711;BME280;51139;45.626;6.850;2023-09-12T04:53:17;82293.19;;;16.88;51.57
64711;BME280;51139;45.626;6.850;2023-09-12T04:55:42;82296.69;;;16.91;51.87
64711;BME280;51139;45.626;6.850;2023-09-12T04:58:08;82297.47;;;17.17;50.80
64711;BME280;51139;45.626;6.850;2023-09-12T05:00:33;82291.44;;;17.17;49.88
64711;BME280;51139;45.626;6.850;2023-09-12T05:02:59;82296.69;;;17.15;50.24
64711;BME280;51139;45.626;6.850;2023-09-12T05:05:25;82287.16;;;17.24;49.20
64711;BME280;51139;45.626;6.850;2023-09-12T05:07:50;82289.81;;;17.61;48.81
64711;BME280;51139;45.626;6.850;2023-09-12T05:10:19;82288.63;;;17.76;47.82
64711;BME280;51139;45.626;6.850;2023-09-12T05:12:44;82287.81;;;18.12;47.36
64711;BME280;51139;45.626;6.850;2023-09-12T05:15:10;82278.22;;;17.57;49.32
64711;BME280;51139;45.626;6.850;2023-09-12T05:17:36;82289.63;;;18.21;47.92
64711;BME280;51139;45.626;6.850;2023-09-12T05:20:02;82291.47;;;18.44;47.90
64711;BME280;51139;45.626;6.850;2023-09-12T05:22:28;82294.50;;;18.64;45.29
64711;BME280;51139;45.626;6.850;2023-09-12T05:24:54;82286.69;;;18.03;49.15
64711;BME280;51139;45.626;6.850;2023-09-12T05:27:20;82297.94;;;18.13;48.84
64711;BME280;51139;45.626;6.850;2023-09-12T05:29:45;82297.41;;;17.91;50.02
64711;BME280;51139;45.626;6.850;2023-09-12T05:32:10;82287.66;;;17.46;50.63
64711;BME280;51139;45.626;6.850;2023-09-12T05:34:36;82290.19;;;17.56;49.54
64711;BME280;51139;45.626;6.850;2023-09-12T05:37:01;82296.34;;;17.58;49.09
64711;BME280;51139;45.626;6.850;2023-09-12T05:39:28;82290.31;;;17.58;50.58
64711;BME280;51139;45.626;6.850;2023-09-12T05:41:53;82289.56;;;17.31;50.78
64711;BME280;51139;45.626;6.850;2023-09-12T05:44:18;82282.09;;;17.42;50.23
64711;BME280;51139;45.626;6.850;2023-09-12T05:46:47;82285.41;;;17.92;48.56
64711;BME280;51139;45.626;6.850;2023-09-12T05:49:14;82286.16;;;17.80;48.53
64711;BME280;51139;45.626;6.850;2023-09-12T05:51:40;82285.56;;;18.20;46.90
64711;BME280;51139;45.626;6.850;2023-09-12T05:54:06;82297.72;;;17.71;46.73
64711;BME280;51139;45.626;6.850;2023-09-12T05:56:32;82298.78;;;18.04;45.63
64711;BME280;51139;45.626;6.850;2023-09-12T16:07:24;82207.84;;;22.37;37.37
64711;BME280;51139;45.626;6.850;2023-09-12T16:09:50;82211.44;;;21.71;37.99
64711;BME280;51139;45.626;6.850;2023-09-12T16:12:15;82207.25;;;22.20;37.74
64711;BME280;51139;45.626;6.850;2023-09-12T16:14:41;82215.38;;;22.40;38.57
64711;BME280;51139;45.626;6.850;2023-09-12T16:17:06;82209.16;;;22.54;38.70
64711;BME280;51139;45.626;6.850;2023-09-12T16:19:33;82211.03;;;22.13;38.20
64711;BME280;51139;45.626;6.850;2023-09-12T16:21:58;82208.56;;;22.19;39.37
64711;BME280;51139;45.626;6.850;2023-09-12T16:24:24;82206.47;;;22.18;39.50
64711;BME280;51139;45.626;6.850;2023-09-12T16:26:49;82198.19;;;20.93;40.90
64711;BME280;51139;45.626;6.850;2023-09-12T16:29:14;82201.03;;;21.63;40.32
64711;BME280;51139;45.626;6.850;2023-09-12T16:31:40;82190.75;;;21.60;39.49
64711;BME280;51139;45.626;6.850;2023-09-12T16:34:06;82198.81;;;21.94;40.01
64711;BME280;51139;45.626;6.850;2023-09-12T16:36:31;82193.56;;;22.34;39.43
64711;BME280;51139;45.626;6.850;2023-09-12T16:38:57;82196.22;;;22.50;38.01
64711;BME280;51139;45.626;6.850;2023-09-12T16:41:22;82194.81;;;22.67;38.97
64711;BME280;51139;45.626;6.850;2023-09-12T16:43:47;82196.91;;;22.33;40.69
64711;BME280;51139;45.626;6.850;2023-09-12T16:46:13;82193.34;;;22.28;38.96
64711;BME280;51139;45.626;6.850;2023-09-12T16:48:38;82192.81;;;22.50;38.65
64711;BME280;51139;45.626;6.850;2023-09-12T16:51:04;82198.97;;;22.34;38.91
64711;BME280;51139;45.626;6.850;2023-09-12T16:53:29;82211.84;;;21.99;39.02
64711;BME280;51139;45.626;6.850;2023-09-12T16:55:55;82210.00;;;22.04;37.94
64711;BME280;51139;45.626;6.850;2023-09-12T16:58:23;82205.97;;;21.87;39.11
64711;BME280;51139;45.626;6.850;2023-09-12T17:00:48;82201.16;;;21.33;39.23
64711;BME280;51139;45.626;6.850;2023-09-12T17:03:14;82206.63;;;21.35;38.29
64711;BME280;51139;45.626;6.850;2023-09-12T17:05:39;82204.91;;;21.60;38.26
64711;BME280;51139;45.626;6.850;2023-09-12T17:08:05;82205.69;;;21.12;40.11
64711;BME280;51139;45.626;6.850;2023-09-12T17:10:30;82207.31;;;20.23;41.13
64711;BME280;51139;45.626;6.850;2023-09-12T17:12:56;82213.91;;;20.98;40.84
64711;BME280;51139;45.626;6.850;2023-09-12T17:15:21;82201.19;;;21.17;40.29
64711;BME280;51139;45.626;6.850;2023-09-12T17:17:47;82201.50;;;20.91;41.13
64711;BME280;51139;45.626;6.850;2023-09-12T17:20:13;82209.44;;;21.21;40.20
64711;BME280;51139;45.626;6.850;2023-09-12T17:22:40;82210.91;;;21.08;40.08
64711;BME280;51139;45.626;6.850;2023-09-12T17:25:06;82213.59;;;21.24;39.69
64711;BME280;51139;45.626;6.850;2023-09-12T17:27:31;82201.19;;;21.17;39.26
64711;BME280;51139;45.626;6.850;2023-09-12T17:29:57;82203.56;;;21.09;38.88
64711;BME280;51139;45.626;6.850;2023-09-12T17:32:22;82200.34;;;20.96;39.50
64711;BME280;51139;45.626;6.850;2023-09-12T17:34:49;82203.63;;;21.27;38.85
64711;BME280;51139;45.626;6.850;2023-09-12T17:37:17;82211.00;;;21.26;38.82
64711;BME280;51139;45.626;6.850;2023-09-12T17:39:43;82215.25;;;21.16;38.99
64711;BME280;51139;45.626;6.850;2023-09-12T17:42:08;82222.56;;;21.29;38.47
64711;BME280;51139;45.626;6.850;2023-09-12T17:44:34;82223.88;;;21.62;37.95
64711;BME280;51139;45.626;6.850;2023-09-12T17:47:00;82222.66;;;20.99;38.27
64711;BME280;51139;45.626;6.850;2023-09-12T17:49:25;82218.69;;;20.84;38.65
64711;BME280;51139;45.626;6.850;2023-09-12T17:51:51;82232.38;;;21.22;39.13
64711;BME280;51139;45.626;6.850;2023-09-12T17:54:17;82237.41;;;20.66;39.97
64711;BME280;51139;45.626;6.850;2023-09-12T17:56:42;82246.84;;;20.35;40.57
64711;BME280;51139;45.626;6.850;2023-09-12T17:59:08;82249.25;;;20.45;40.49
64711;BME280;51139;45.626;6.850;2023-09-12T18:01:33;82266.97;;;16.03;69.24
64711;BME280;51139;45.626;6.850;2023-09-12T18:03:59;82277.13;;;17.24;68.19
64711;BME280;51139;45.626;6.850;2023-09-12T18:06:24;82289.66;;;16.26;78.67
64711;BME280;51139;45.626;6.850;2023-09-12T18:08:52;82286.22;;;16.71;77.71
64711;BME280;51139;45.626;6.850;2023-09-12T18:11:17;82293.19;;;17.24;77.58
64711;BME280;51139;45.626;6.850;2023-09-12T18:13:42;82291.44;;;17.29;76.37
64711;BME280;51139;45.626;6.850;2023-09-12T18:16:11;82293.09;;;16.98;76.75
64711;BME280;51139;45.626;6.850;2023-09-12T18:18:39;82293.66;;;16.61;78.27
64711;BME280;51139;45.626;6.850;2023-09-12T18:21:04;82295.63;;;16.84;76.90
64711;BME280;51139;45.626;6.850;2023-09-12T18:23:30;82307.84;;;17.35;75.20
64711;BME280;51139;45.626;6.850;2023-09-12T18:25:58;82314.13;;;16.92;77.17
64711;BME280;51139;45.626;6.850;2023-09-12T18:28:48;82321.38;;;17.01;76.02
64711;BME280;51139;45.626;6.850;2023-09-12T18:31:15;82321.75;;;17.57;59.96
64711;BME280;51139;45.626;6.850;2023-09-12T18:33:42;82336.44;;;16.49;75.33
64711;BME280;51139;45.626;6.850;2023-09-12T18:36:08;82329.34;;;16.54;74.99
64711;BME280;51139;45.626;6.850;2023-09-12T18:38:36;82333.72;;;16.37;77.43
64711;BME280;51139;45.626;6.850;2023-09-12T18:41:01;82339.69;;;15.80;82.30
64711;BME280;51139;45.626;6.850;2023-09-12T18:43:27;82337.19;;;16.28;80.41
64711;BME280;51139;45.626;6.850;2023-09-12T18:45:53;82334.91;;;16.00;82.10
64711;BME280;51139;45.626;6.850;2023-09-12T18:48:19;82333.34;;;16.19;83.37
64711;BME280;51139;45.626;6.850;2023-09-12T18:50:45;82321.13;;;16.04;84.73
64711;BME280;51139;45.626;6.850;2023-09-12T18:53:14;82322.09;;;16.21;87.05
64711;BME280;51139;45.626;6.850;2023-09-12T18:55:43;82313.22;;;15.72;89.83
64711;BME280;51139;45.626;6.850;2023-09-12T18:58:10;82331.00;;;15.80;91.86
64711;BME280;51139;45.626;6.850;2023-09-12T19:00:37;82324.09;;;16.44;87.67
64711;BME280;51139;45.626;6.850;2023-09-12T19:03:05;82326.00;;;16.77;84.31
64711;BME280;51139;45.626;6.850;2023-09-12T19:05:31;82333.28;;;15.95;87.38
64711;BME280;51139;45.626;6.850;2023-09-12T19:07:57;82328.34;;;16.25;87.21
64711;BME280;51139;45.626;6.850;2023-09-12T19:10:22;82321.72;;;15.81;86.22
64711;BME280;51139;45.626;6.850;2023-09-12T19:12:48;82322.50;;;16.62;82.45
64711;BME280;51139;45.626;6.850;2023-09-12T19:15:14;82330.47;;;15.93;82.22
64711;BME280;51139;45.626;6.850;2023-09-12T19:17:41;82338.91;;;16.23;79.37
64711;BME280;51139;45.626;6.850;2023-09-12T19:20:07;82347.59;;;16.69;81.07
64711;BME280;51139;45.626;6.850;2023-09-12T19:22:33;82341.25;;;16.98;78.57
64711;BME280;51139;45.626;6.850;2023-09-12T19:24:58;82341.09;;;16.60;82.49
64711;BME280;51139;45.626;6.850;2023-09-12T19:27:24;82343.75;;;15.48;93.19
64711;BME280;51139;45.626;6.850;2023-09-12T19:29:54;82338.31;;;16.01;94.22
64711;BME280;51139;45.626;6.850;2023-09-12T19:32:22;82346.00;;;16.88;84.97
64711;BME280;51139;45.626;6.850;2023-09-12T19:34:48;82358.06;;;17.60;78.75
64711;BME280;51139;45.626;6.850;2023-09-12T19:37:13;82354.28;;;17.04;77.31
64711;BME280;51139;45.626;6.850;2023-09-12T19:39:39;82355.63;;;17.53;78.43
64711;BME280;51139;45.626;6.850;2023-09-12T19:42:05;82352.78;;;17.86;73.98
64711;BME280;51139;45.626;6.850;2023-09-12T19:44:31;82355.38;;;17.72;73.09
64711;BME280;51139;45.626;6.850;2023-09-12T19:46:57;82352.41;;;17.18;77.71
64711;BME280;51139;45.626;6.850;2023-09-12T19:49:22;82358.13;;;17.01;76.97
64711;BME280;51139;45.626;6.850;2023-09-12T19:51:48;82350.19;;;16.91;82.91
64711;BME280;51139;45.626;6.850;2023-09-12T19:54:14;82358.31;;;16.81;85.35
64711;BME280;51139;45.626;6.850;2023-09-12T19:56:39;82354.22;;;16.56;88.04
64711;BME280;51139;45.626;6.850;2023-09-12T19:59:04;82350.28;;;16.12;91.99
64711;BME280;51139;45.626;6.850;2023-09-12T20:01:30;82349.59;;;16.11;98.17
64711;BME280;51139;45.626;6.850;2023-09-12T20:03:55;82345.66;;;16.24;97.17
64711;BME280;51139;45.626;6.850;2023-09-12T20:06:21;82355.94;;;16.40;96.10
64711;BME280;51139;45.626;6.850;2023-09-12T20:08:46;82343.22;;;16.28;97.40
64711;BME280;51139;45.626;6.850;2023-09-12T20:11:12;82340.84;;;16.56;94.20
64711;BME280;51139;45.626;6.850;2023-09-12T20:13:38;82341.22;;;16.74;89.42
64711;BME280;51139;45.626;6.850;2023-09-12T20:16:04;82346.00;;;17.35;82.61
64711;BME280;51139;45.626;6.850;2023-09-12T20:18:29;82351.84;;;17.32;80.64
64711;BME280;51139;45.626;6.850;2023-09-12T20:20:55;82351.13;;;17.19;82.37
64711;BME280;51139;45.626;6.850;2023-09-12T20:23:24;82344.59;;;16.87;85.27
64711;BME280;51139;45.626;6.850;2023-09-12T20:25:51;82350.84;;;16.44;91.07
64711;BME280;51139;45.626;6.850;2023-09-12T20:28:19;82340.69;;;16.30;93.31
64711;BME280;51139;45.626;6.850;2023-09-12T20:30:44;82345.63;;;16.70;89.93
64711;BME280;51139;45.626;6.850;2023-09-12T20:33:10;82357.91;;;16.39;92.51
64711;BME280;51139;45.626;6.850;2023-09-12T20:35:35;82349.38;;;16.19;93.64
64711;BME280;51139;45.626;6.850;2023-09-12T20:38:02;82344.03;;;16.19;91.21
64711;BME280;51139;45.626;6.850;2023-09-12T20:40:29;82345.06;;;16.14;89.52
64711;BME280;51139;45.626;6.850;2023-09-12T20:42:54;82347.47;;;16.43;89.30
64711;BME280;51139;45.626;6.850;2023-09-12T20:45:20;82341.47;;;16.90;86.02
64711;BME280;51139;45.626;6.850;2023-09-12T20:47:46;82349.47;;;16.67;86.39
64711;BME280;51139;45.626;6.850;2023-09-12T20:50:12;82353.44;;;16.89;87.99
64711;BME280;51139;45.626;6.850;2023-09-12T20:52:40;82350.56;;;17.33;80.57
64711;BME280;51139;45.626;6.850;2023-09-12T20:55:05;82350.88;;;16.91;82.67
64711;BME280;51139;45.626;6.850;2023-09-12T20:57:31;82354.25;;;16.92;80.78
64711;BME280;51139;45.626;6.850;2023-09-12T20:59:58;82343.09;;;16.72;83.63
64711;BME280;51139;45.626;6.850;2023-09-12T21:02:24;82345.91;;;16.28;86.38
64711;BME280;51139;45.626;6.850;2023-09-12T21:04:50;82337.22;;;15.94;86.19
64711;BME280;51139;45.626;6.850;2023-09-12T21:07:15;82331.97;;;15.63;89.39
64711;BME280;51139;45.626;6.850;2023-09-12T21:09:41;82338.13;;;15.65;89.52
64711;BME280;51139;45.626;6.850;2023-09-12T21:12:06;82342.56;;;15.94;86.17
64711;BME280;51139;45.626;6.850;2023-09-12T21:14:32;82339.94;;;16.06;85.37
64711;BME280;51139;45.626;6.850;2023-09-12T21:16:57;82334.81;;;15.76;87.01
64711;BME280;51139;45.626;6.850;2023-09-12T21:19:23;82331.06;;;15.92;88.77
64711;BME280;51139;45.626;6.850;2023-09-12T21:21:48;82329.81;;;16.04;86.95
64711;BME280;51139;45.626;6.850;2023-09-12T21:24:14;82331.47;;;16.10;86.20
64711;BME280;51139;45.626;6.850;2023-09-12T21:26:39;82331.78;;;16.38;84.03
64711;BME280;51139;45.626;6.850;2023-09-12T21:29:05;82343.97;;;16.41;84.65
64711;BME280;51139;45.626;6.850;2023-09-12T21:31:30;82341.09;;;16.84;81.62
64711;BME280;51139;45.626;6.850;2023-09-12T21:33:56;82346.47;;;17.20;80.79
64711;BME280;51139;45.626;6.850;2023-09-12T21:36:21;82346.84;;;17.02;80.96
64711;BME280;51139;45.626;6.850;2023-09-12T21:38:47;82347.38;;;16.53;81.98
64711;BME280;51139;45.626;6.850;2023-09-12T21:41:12;82343.78;;;16.60;81.20
64711;BME280;51139;45.626;6.850;2023-09-12T21:43:38;82344.75;;;16.19;81.89
64711;BME280;51139;45.626;6.850;2023-09-12T21:46:03;82343.22;;;16.16;83.08
64711;BME280;51139;45.626;6.850;2023-09-12T21:48:29;82330.63;;;16.53;80.65
64711;BME280;51139;45.626;6.850;2023-09-12T21:50:54;82340.53;;;16.74;80.78
64711;BME280;51139;45.626;6.850;2023-09-12T21:53:19;82341.91;;;16.75;78.77
64711;BME280;51139;45.626;6.850;2023-09-12T21:55:45;82346.88;;;16.45;73.57
64711;BME280;51139;45.626;6.850;2023-09-12T21:58:11;82338.44;;;16.15;84.27
64711;BME280;51139;45.626;6.850;2023-09-12T22:00:36;82338.34;;;16.25;82.23
64711;BME280;51139;45.626;6.850;2023-09-12T22:03:02;82339.72;;;16.14;82.50
64711;BME280;51139;45.626;6.850;2023-09-12T22:05:28;82342.13;;;15.98;84.27
64711;BME280;51139;45.626;6.850;2023-09-12T22:07:53;82341.22;;;16.05;84.25
64711;BME280;51139;45.626;6.850;2023-09-12T22:10:19;82340.19;;;16.22;81.52
64711;BME280;51139;45.626;6.850;2023-09-12T22:12:45;82339.06;;;16.37;79.29
64711;BME280;51139;45.626;6.850;2023-09-12T22:15:11;82341.69;;;16.71;78.47
64711;BME280;51139;45.626;6.850;2023-09-12T22:17:36;82343.41;;;16.54;78.45
64711;BME280;51139;45.626;6.850;2023-09-12T22:20:03;82351.88;;;16.51;80.24
64711;BME280;51139;45.626;6.850;2023-09-12T22:22:30;82346.19;;;16.44;78.87
64711;BME280;51139;45.626;6.850;2023-09-12T22:24:55;82345.13;;;16.49;77.69
64711;BME280;51139;45.626;6.850;2023-09-12T22:27:22;82346.66;;;16.41;79.64
64711;BME280;51139;45.626;6.850;2023-09-12T22:29:47;82343.59;;;16.34;80.49
64711;BME280;51139;45.626;6.850;2023-09-12T22:32:13;82332.97;;;16.58;79.46
64711;BME280;51139;45.626;6.850;2023-09-12T22:34:42;82327.75;;;17.32;75.10
64711;BME280;51139;45.626;6.850;2023-09-12T22:37:07;82336.81;;;17.88;71.91
64711;BME280;51139;45.626;6.850;2023-09-12T22:39:33;82336.22;;;17.90;72.33
64711;BME280;51139;45.626;6.850;2023-09-12T22:41:58;82341.56;;;17.90;72.60
64711;BME280;51139;45.626;6.850;2023-09-12T22:44:24;82341.53;;;17.64;72.00
64711;BME280;51139;45.626;6.850;2023-09-12T22:46:49;82336.44;;;17.44;73.64
64711;BME280;51139;45.626;6.850;2023-09-12T22:49:15;82329.72;;;16.96;76.07
64711;BME280;51139;45.626;6.850;2023-09-12T22:51:40;82335.66;;;16.82;76.35
64711;BME280;51139;45.626;6.850;2023-09-12T22:54:05;82332.84;;;16.56;78.83
64711;BME280;51139;45.626;6.850;2023-09-12T22:56:31;82317.38;;;16.43;77.89
64711;BME280;51139;45.626;6.850;2023-09-12T22:58:57;82326.44;;;16.49;77.76
64711;BME280;51139;45.626;6.850;2023-09-12T23:01:22;82324.31;;;16.36;78.71
64711;BME280;51139;45.626;6.850;2023-09-12T23:03:48;82318.41;;;16.49;78.76
64711;BME280;51139;45.626;6.850;2023-09-12T23:06:13;82319.41;;;16.32;81.80
64711;BME280;51139;45.626;6.850;2023-09-12T23:08:38;82322.59;;;16.41;82.84